Time;durP1;ratioP1;P1;durP2;ratioP2;P2;SDS_P1;SDS_P2;PMS_P1;PMS_P2;Temp;Humidity;BMP_temperature;BMP_pressure;BME280_temperature;BME280_humidity;BME280_pressure;Samples;Min_cycle;Max_cycle;Signal;HPM_P1;HPM_P2
2024/04/04 00:01:42;;;;;;;0.50;0.40;;;10.90;99.90;;;;;;4959670;29;20442;-84
2024/04/04 00:04:09;;;;;;;0.40;0.40;;;10.90;99.90;;;;;;4960030;29;20465;-84
2024/04/04 00:06:35;;;;;;;0.50;0.50;;;10.90;99.90;;;;;;4959430;28;20210;-85
2024/04/04 00:09:01;;;;;;;0.40;0.40;;;11.00;99.90;;;;;;4959508;29;20894;-84
2024/04/04 00:11:27;;;;;;;0.70;0.50;;;10.90;99.90;;;;;;4960257;29;20237;-85
2024/04/04 00:13:55;;;;;;;1.70;0.40;;;11.00;99.90;;;;;;4980390;28;20427;-83
2024/04/04 00:16:21;;;;;;;0.40;0.40;;;11.00;99.90;;;;;;4982729;28;20198;-83
2024/04/04 00:18:48;;;;;;;1.10;0.50;;;11.00;99.90;;;;;;4982684;28;20455;-83
2024/04/04 00:21:14;;;;;;;0.50;0.50;;;10.90;99.90;;;;;;4982538;28;20187;-84
2024/04/04 00:23:41;;;;;;;0.70;0.40;;;10.90;99.90;;;;;;4982591;28;20461;-83
2024/04/04 00:26:06;;;;;;;1.17;0.40;;;10.80;99.90;;;;;;4971242;28;20195;-84
2024/04/04 00:28:34;;;;;;;0.50;0.50;;;10.80;99.90;;;;;;4964173;29;20565;-84
2024/04/04 00:31:01;;;;;;;0.40;0.40;;;10.70;99.90;;;;;;4964574;29;20226;-84
2024/04/04 00:33:28;;;;;;;4.67;0.50;;;10.60;99.90;;;;;;4963237;29;20465;-84
2024/04/04 00:35:53;;;;;;;0.60;0.50;;;10.60;99.90;;;;;;4962181;29;20460;-85
2024/04/04 00:38:20;;;;;;;0.60;0.60;;;10.60;99.90;;;;;;4962597;29;20439;-83
2024/04/04 00:40:46;;;;;;;0.70;0.70;;;10.50;99.90;;;;;;4963148;29;20206;-84
2024/04/04 00:43:13;;;;;;;0.40;0.40;;;10.40;99.90;;;;;;4962887;29;20526;-84
2024/04/04 00:45:39;;;;;;;0.40;0.30;;;10.40;99.90;;;;;;4962845;29;20562;-84
2024/04/04 00:48:08;;;;;;;0.90;0.57;;;10.40;99.90;;;;;;4962658;29;20532;-84
2024/04/04 00:50:33;;;;;;;0.50;0.50;;;10.40;99.90;;;;;;4962157;29;20442;-84
2024/04/04 00:53:01;;;;;;;0.43;0.40;;;10.30;99.90;;;;;;4961616;29;20939;-84
2024/04/04 00:55:27;;;;;;;0.30;0.30;;;10.30;99.90;;;;;;4961938;29;20241;-84
2024/04/04 00:57:55;;;;;;;0.47;0.40;;;10.40;99.90;;;;;;4961427;29;20434;-84
2024/04/04 01:00:23;;;;;;;2.50;0.43;;;10.40;99.90;;;;;;4961532;29;20466;-84
2024/04/04 01:02:50;;;;;;;0.30;0.30;;;10.30;99.90;;;;;;4961338;29;20446;-84
2024/04/04 01:05:18;;;;;;;0.40;0.40;;;10.30;99.90;;;;;;4960631;29;20458;-84
2024/04/04 01:07:46;;;;;;;0.40;0.40;;;10.30;99.90;;;;;;4960836;29;20508;-85
2024/04/04 01:10:12;;;;;;;0.40;0.40;;;10.20;99.90;;;;;;4961284;29;20976;-83
2024/04/04 01:12:39;;;;;;;0.33;0.30;;;10.20;99.90;;;;;;4961245;29;20541;-84
2024/04/04 01:15:06;;;;;;;1.13;0.50;;;10.20;99.90;;;;;;4960723;29;20214;-84
2024/04/04 01:17:32;;;;;;;1.30;0.53;;;10.30;99.90;;;;;;4960341;28;20530;-84
2024/04/04 01:19:58;;;;;;;0.40;0.30;;;10.30;99.90;;;;;;4960249;29;20474;-84
2024/04/04 01:22:26;;;;;;;0.30;0.30;;;10.30;99.90;;;;;;4960183;29;20821;-84
2024/04/04 01:24:54;;;;;;;0.90;0.40;;;10.40;99.90;;;;;;4959966;29;20202;-84
2024/04/04 01:27:20;;;;;;;0.40;0.40;;;10.30;99.90;;;;;;4959885;29;20466;-84
2024/04/04 01:29:46;;;;;;;6.77;0.70;;;10.30;99.90;;;;;;4959656;29;20458;-84
2024/04/04 01:32:13;;;;;;;0.50;0.43;;;10.30;99.90;;;;;;4959991;29;20852;-84
2024/04/04 01:34:39;;;;;;;0.50;0.50;;;10.30;99.90;;;;;;4959627;29;20209;-84
2024/04/04 01:37:05;;;;;;;0.37;0.30;;;10.40;99.90;;;;;;4959916;29;20450;-84
2024/04/04 01:39:31;;;;;;;0.43;0.40;;;10.40;99.90;;;;;;4959438;29;20322;-84
2024/04/04 01:41:59;;;;;;;0.37;0.37;;;10.50;99.90;;;;;;4959487;29;20474;-83
2024/04/04 01:44:25;;;;;;;0.83;0.57;;;10.50;99.90;;;;;;4959093;29;20207;-84
2024/04/04 01:46:52;;;;;;;0.40;0.40;;;10.50;99.90;;;;;;4958971;29;20489;-84
2024/04/04 01:49:18;;;;;;;1.63;0.80;;;10.60;99.90;;;;;;4960141;29;20237;-85
2024/04/04 01:51:45;;;;;;;0.40;0.40;;;10.60;99.90;;;;;;4960961;29;20477;-85
2024/04/04 01:54:11;;;;;;;3.30;0.47;;;10.60;99.90;;;;;;4960745;29;20449;-85
2024/04/04 01:56:38;;;;;;;0.40;0.40;;;10.70;99.90;;;;;;4961109;29;20430;-84
2024/04/04 01:59:05;;;;;;;1.70;0.50;;;10.70;99.90;;;;;;4960793;29;20474;-84
2024/04/04 02:01:32;;;;;;;0.97;0.40;;;10.60;99.90;;;;;;4960173;29;20549;-85
2024/04/04 02:03:58;;;;;;;0.50;0.40;;;10.60;99.90;;;;;;4959617;29;20450;-85
2024/04/04 02:06:25;;;;;;;0.40;0.40;;;10.60;99.90;;;;;;4959655;29;20814;-85
2024/04/04 02:08:51;;;;;;;0.30;0.30;;;10.70;99.90;;;;;;4958776;29;20614;-84
2024/04/04 02:11:17;;;;;;;6.07;0.70;;;10.70;99.90;;;;;;4959144;29;20446;-84
2024/04/04 02:13:43;;;;;;;0.40;0.40;;;10.70;99.90;;;;;;4959405;29;20206;-84
2024/04/04 02:16:12;;;;;;;0.80;0.50;;;10.60;99.90;;;;;;4959962;29;20460;-85
2024/04/04 02:18:38;;;;;;;1.37;0.50;;;10.60;99.90;;;;;;4960113;29;20258;-84
2024/04/04 02:21:05;;;;;;;0.97;0.40;;;10.50;99.90;;;;;;4960271;29;20453;-85
2024/04/04 02:23:31;;;;;;;0.37;0.37;;;10.40;99.90;;;;;;4959917;29;20455;-84
2024/04/04 02:25:58;;;;;;;4.83;0.50;;;10.40;99.90;;;;;;4960530;29;20454;-84
2024/04/04 02:28:24;;;;;;;2.63;0.57;;;10.30;99.90;;;;;;4961898;28;20488;-85
2024/04/04 02:30:51;;;;;;;3.30;0.40;;;10.30;99.90;;;;;;4966940;28;20434;-85
2024/04/04 02:33:18;;;;;;;0.70;0.50;;;10.30;99.90;;;;;;4968850;29;20493;-84
2024/04/04 02:35:53;;;;;;;0.40;0.40;;;10.30;99.90;;;;;;4969297;28;20978;-84
2024/04/04 02:38:19;;;;;;;3.60;0.43;;;10.20;99.90;;;;;;4967117;28;20939;-85
2024/04/04 02:40:46;;;;;;;0.50;0.50;;;10.20;99.90;;;;;;4967654;29;20479;-85
2024/04/04 02:43:12;;;;;;;0.53;0.50;;;10.20;99.90;;;;;;4967953;29;20454;-84
2024/04/04 02:45:38;;;;;;;0.40;0.33;;;10.10;99.90;;;;;;4967285;29;20464;-84
2024/04/04 02:48:05;;;;;;;0.60;0.50;;;10.10;99.90;;;;;;4967001;29;20245;-84
2024/04/04 02:50:33;;;;;;;0.80;0.50;;;10.10;99.90;;;;;;4966176;29;20983;-84
2024/04/04 02:52:59;;;;;;;1.10;0.40;;;10.20;99.90;;;;;;4966578;28;20484;-84
2024/04/04 02:55:25;;;;;;;0.30;0.30;;;10.20;99.90;;;;;;4966737;29;20446;-84
2024/04/04 02:57:51;;;;;;;0.87;0.47;;;10.20;99.90;;;;;;4966503;28;20207;-84
2024/04/04 03:00:18;;;;;;;0.40;0.40;;;10.20;99.90;;;;;;4965707;28;20474;-84
2024/04/04 03:02:44;;;;;;;0.40;0.40;;;10.30;99.90;;;;;;4965766;29;20209;-84
2024/04/04 03:05:11;;;;;;;2.20;0.33;;;10.30;99.90;;;;;;4965239;29;20439;-85
2024/04/04 03:07:38;;;;;;;0.47;0.47;;;10.30;99.90;;;;;;4965635;28;20257;-85
2024/04/04 03:10:07;;;;;;;0.40;0.40;;;10.30;99.90;;;;;;4965615;29;20474;-84
2024/04/04 03:12:32;;;;;;;0.70;0.70;;;10.30;99.90;;;;;;4966803;29;20525;-84
2024/04/04 03:14:59;;;;;;;0.70;0.70;;;10.30;99.90;;;;;;4965946;28;20466;-84
2024/04/04 03:17:27;;;;;;;2.13;0.50;;;10.30;99.90;;;;;;4965706;29;20667;-84
2024/04/04 03:19:54;;;;;;;0.40;0.30;;;10.30;99.90;;;;;;4965435;29;20481;-85
2024/04/04 03:22:21;;;;;;;0.40;0.30;;;10.30;99.90;;;;;;4965264;28;20454;-84
2024/04/04 03:24:49;;;;;;;0.40;0.40;;;10.30;99.90;;;;;;4965292;29;20434;-84
2024/04/04 03:27:14;;;;;;;0.70;0.30;;;10.30;99.90;;;;;;4964998;29;20453;-84
2024/04/04 03:29:41;;;;;;;0.50;0.40;;;10.30;99.90;;;;;;4965427;29;20476;-85
2024/04/04 03:32:08;;;;;;;0.30;0.30;;;10.20;99.90;;;;;;4965191;29;20233;-84
2024/04/04 03:34:34;;;;;;;0.33;0.30;;;10.20;99.90;;;;;;4965546;28;20445;-84
2024/04/04 03:37:00;;;;;;;0.50;0.40;;;10.30;99.90;;;;;;4964765;28;20444;-84
2024/04/04 03:39:27;;;;;;;2.00;0.80;;;10.30;99.90;;;;;;4964543;28;20458;-84
2024/04/04 03:41:55;;;;;;;0.40;0.40;;;10.40;99.90;;;;;;4960978;29;20210;-85
2024/04/04 03:44:22;;;;;;;1.00;0.43;;;10.30;99.90;;;;;;4961953;29;20461;-84
2024/04/04 03:46:47;;;;;;;0.40;0.30;;;10.30;99.90;;;;;;4961343;29;20488;-84
2024/04/04 03:49:14;;;;;;;0.93;0.50;;;10.40;99.90;;;;;;4961436;29;20474;-84
2024/04/04 03:51:40;;;;;;;1.13;0.47;;;10.40;99.90;;;;;;4961358;29;20571;-83
2024/04/04 03:54:07;;;;;;;5.80;0.53;;;10.30;99.90;;;;;;4961482;29;20450;-85
2024/04/04 03:56:32;;;;;;;0.40;0.40;;;10.30;99.90;;;;;;4961282;29;20277;-83
2024/04/04 03:59:01;;;;;;;2.40;0.40;;;10.30;99.90;;;;;;4961179;29;20470;-84
2024/04/04 04:01:26;;;;;;;0.30;0.30;;;10.30;99.90;;;;;;4961160;29;20211;-84
2024/04/04 04:03:53;;;;;;;1.47;0.43;;;10.30;99.90;;;;;;4961864;29;20468;-84
2024/04/04 04:06:19;;;;;;;0.40;0.40;;;10.20;99.90;;;;;;4960899;29;20210;-84
2024/04/04 04:08:46;;;;;;;1.13;0.70;;;10.20;99.90;;;;;;4961318;29;20470;-84
2024/04/04 04:11:12;;;;;;;3.07;0.40;;;10.20;99.90;;;;;;4961193;29;20214;-85
2024/04/04 04:13:38;;;;;;;0.40;0.30;;;10.10;99.90;;;;;;4961051;29;20877;-84
2024/04/04 04:16:08;;;;;;;0.57;0.50;;;10.10;99.90;;;;;;4976137;28;20435;-84
2024/04/04 04:18:35;;;;;;;2.10;0.40;;;10.10;99.90;;;;;;4982717;28;20450;-85
2024/04/04 04:21:20;;;;;;;0.60;0.60;;;10.10;99.90;;;;;;4982649;28;20510;-84
2024/04/04 04:23:48;;;;;;;0.70;0.60;;;10.20;99.90;;;;;;4982689;28;20415;-84
2024/04/04 04:26:15;;;;;;;0.40;0.33;;;10.10;99.90;;;;;;4982699;28;20447;-84
2024/04/04 04:28:42;;;;;;;0.40;0.30;;;10.00;99.90;;;;;;4971640;28;20489;-84
2024/04/04 04:31:23;;;;;;;8.53;0.70;;;10.00;99.90;;;;;;4964668;29;20968;-85
2024/04/04 04:33:50;;;;;;;0.67;0.63;;;10.00;99.90;;;;;;4964409;29;20541;-84
2024/04/04 04:36:15;;;;;;;1.90;0.50;;;10.00;99.90;;;;;;4964189;29;20450;-84
2024/04/04 04:38:42;;;;;;;0.50;0.50;;;9.90;99.90;;;;;;4963816;29;20826;-84
2024/04/04 04:41:08;;;;;;;0.30;0.30;;;9.80;99.90;;;;;;4963471;29;20210;-84
2024/04/04 04:43:35;;;;;;;0.83;0.40;;;9.70;99.90;;;;;;4963690;29;20967;-85
2024/04/04 04:46:01;;;;;;;0.50;0.47;;;9.70;99.90;;;;;;4962655;29;20438;-84
2024/04/04 04:48:29;;;;;;;0.60;0.60;;;9.70;99.90;;;;;;4963465;29;20530;-84
2024/04/04 04:50:55;;;;;;;0.90;0.40;;;9.70;99.90;;;;;;4962529;28;20206;-84
2024/04/04 04:53:22;;;;;;;0.50;0.50;;;9.70;99.90;;;;;;4960826;29;20488;-84
2024/04/04 04:55:47;;;;;;;0.40;0.40;;;9.70;99.90;;;;;;4962452;29;20674;-85
2024/04/04 04:58:14;;;;;;;0.40;0.40;;;9.70;99.90;;;;;;4961501;29;20518;-84
2024/04/04 05:00:41;;;;;;;0.90;0.40;;;9.60;99.90;;;;;;4961486;29;20568;-84
2024/04/04 05:03:08;;;;;;;3.40;0.50;;;9.70;99.90;;;;;;4960883;29;20975;-84
2024/04/04 05:05:36;;;;;;;0.60;0.60;;;9.70;99.90;;;;;;4960576;29;20458;-85
2024/04/04 05:08:02;;;;;;;1.17;0.40;;;9.80;99.90;;;;;;4961234;29;20468;-84
2024/04/04 05:10:30;;;;;;;1.60;0.40;;;9.80;99.90;;;;;;4960860;29;21015;-84
2024/04/04 05:12:55;;;;;;;0.40;0.40;;;9.90;99.90;;;;;;4961430;29;20532;-84
2024/04/04 05:15:22;;;;;;;2.10;0.43;;;9.90;99.90;;;;;;4960854;29;20450;-84
2024/04/04 05:17:48;;;;;;;0.50;0.50;;;9.90;99.90;;;;;;4960695;29;20928;-84
2024/04/04 05:20:15;;;;;;;0.40;0.30;;;10.00;99.90;;;;;;4960589;29;20477;-85
2024/04/04 05:22:42;;;;;;;1.13;0.47;;;10.00;99.90;;;;;;4960324;29;20206;-85
2024/04/04 05:25:13;;;;;;;0.47;0.33;;;10.00;99.90;;;;;;4959506;29;20813;-84
2024/04/04 05:27:39;;;;;;;0.40;0.40;;;10.00;99.90;;;;;;4959791;29;20454;-84
2024/04/04 05:30:07;;;;;;;1.07;0.47;;;10.00;99.90;;;;;;4959755;29;20470;-85
2024/04/04 05:32:33;;;;;;;1.33;0.50;;;10.10;99.90;;;;;;4960575;29;20234;-85
2024/04/04 05:35:00;;;;;;;4.63;0.53;;;10.20;99.90;;;;;;4962180;29;20565;-84
2024/04/04 05:37:26;;;;;;;0.30;0.30;;;10.20;99.90;;;;;;4961435;29;20207;-84
2024/04/04 05:39:54;;;;;;;0.50;0.40;;;10.30;99.90;;;;;;4960954;29;20517;-84
2024/04/04 05:42:20;;;;;;;6.10;0.60;;;10.30;99.90;;;;;;4960432;29;20214;-84
2024/04/04 05:44:47;;;;;;;3.33;0.57;;;10.40;99.90;;;;;;4959884;29;20442;-85
2024/04/04 05:47:12;;;;;;;0.60;0.40;;;10.40;99.90;;;;;;4959257;29;20251;-84
2024/04/04 05:49:39;;;;;;;0.77;0.47;;;10.40;99.90;;;;;;4959568;29;20838;-84
2024/04/04 05:52:06;;;;;;;0.60;0.50;;;10.40;99.90;;;;;;4958673;29;20688;-84
2024/04/04 05:54:32;;;;;;;2.67;0.50;;;10.40;99.90;;;;;;4959073;29;20446;-85
2024/04/04 05:56:59;;;;;;;0.90;0.40;;;10.40;99.90;;;;;;4959779;29;20452;-84
2024/04/04 05:59:26;;;;;;;1.43;0.60;;;10.40;99.90;;;;;;4958831;29;20474;-85
2024/04/04 06:01:52;;;;;;;1.23;0.40;;;10.40;99.90;;;;;;4960234;29;20453;-84
2024/04/04 06:04:19;;;;;;;2.47;0.40;;;10.40;99.90;;;;;;4970014;28;20497;-85
2024/04/04 06:06:44;;;;;;;0.30;0.30;;;10.60;99.90;;;;;;4980815;28;20211;-85
2024/04/04 06:09:11;;;;;;;2.10;0.60;;;10.80;99.90;;;;;;4980466;28;20471;-83
2024/04/04 06:11:37;;;;;;;1.80;0.70;;;10.80;99.90;;;;;;4980865;28;20249;-83
2024/04/04 06:14:05;;;;;;;2.00;0.60;;;11.00;99.90;;;;;;4978505;28;20490;-85
2024/04/04 06:16:31;;;;;;;0.90;0.60;;;11.20;99.90;;;;;;4979323;28;20246;-82
2024/04/04 06:18:59;;;;;;;0.50;0.40;;;11.40;99.90;;;;;;4979750;28;20467;-84
2024/04/04 06:21:25;;;;;;;5.13;0.40;;;11.60;99.90;;;;;;4966570;29;20657;-85
2024/04/04 06:23:52;;;;;;;1.27;0.80;;;11.70;99.90;;;;;;4963072;29;20530;-84
2024/04/04 06:26:17;;;;;;;2.20;0.67;;;11.70;99.90;;;;;;4963555;29;20226;-84
2024/04/04 06:28:46;;;;;;;1.73;0.50;;;11.80;99.90;;;;;;4964478;29;20473;-84
2024/04/04 06:31:13;;;;;;;1.80;0.60;;;11.90;99.90;;;;;;4961865;29;20195;-84
2024/04/04 06:33:40;;;;;;;1.80;0.50;;;11.90;99.90;;;;;;4961960;29;20509;-85
2024/04/04 06:36:06;;;;;;;4.33;0.60;;;12.10;99.90;;;;;;4962252;29;20454;-84
2024/04/04 06:38:32;;;;;;;2.83;0.40;;;12.30;99.90;;;;;;4961400;29;20501;-84
2024/04/04 06:40:58;;;;;;;1.97;0.40;;;12.60;99.90;;;;;;4960608;29;20450;-84
2024/04/04 06:43:25;;;;;;;2.50;0.60;;;12.80;99.90;;;;;;4960813;29;20442;-84
2024/04/04 06:45:51;;;;;;;2.53;0.50;;;13.10;99.90;;;;;;4959780;29;20211;-84
2024/04/04 06:48:19;;;;;;;1.27;0.63;;;12.90;99.90;;;;;;4961114;29;20517;-83
2024/04/04 06:50:45;;;;;;;0.50;0.50;;;13.00;99.90;;;;;;4960666;29;20203;-83
2024/04/04 06:53:12;;;;;;;3.13;0.40;;;13.00;99.90;;;;;;4960063;29;20482;-83
2024/04/04 06:55:38;;;;;;;2.33;0.50;;;13.10;99.90;;;;;;4960929;29;20446;-83
2024/04/04 06:58:05;;;;;;;1.50;0.40;;;13.10;99.90;;;;;;4960501;29;20453;-83
2024/04/04 07:00:31;;;;;;;0.87;0.50;;;13.20;99.90;;;;;;4961213;29;20710;-83
2024/04/04 07:02:57;;;;;;;0.67;0.40;;;13.30;99.90;;;;;;4960660;29;20478;-83
2024/04/04 07:05:25;;;;;;;4.10;0.67;;;13.40;99.90;;;;;;4960632;29;20203;-83
2024/04/04 07:07:51;;;;;;;0.33;0.30;;;13.70;99.90;;;;;;4961280;29;20458;-83
2024/04/04 07:10:17;;;;;;;1.07;0.50;;;13.90;99.90;;;;;;4960729;29;20473;-83
2024/04/04 07:12:44;;;;;;;2.70;0.60;;;14.10;99.90;;;;;;4959925;29;20474;-84
2024/04/04 07:15:10;;;;;;;7.43;0.53;;;14.20;99.90;;;;;;4960583;28;20206;-84
2024/04/04 07:17:37;;;;;;;2.00;0.60;;;14.30;99.90;;;;;;4963600;29;20489;-84
2024/04/04 07:20:05;;;;;;;1.13;0.40;;;14.30;99.90;;;;;;4963462;29;20222;-84
2024/04/04 07:22:33;;;;;;;0.60;0.33;;;14.50;99.90;;;;;;4962890;29;20956;-84
2024/04/04 07:24:59;;;;;;;1.83;0.50;;;14.50;99.90;;;;;;4963264;29;20952;-84
2024/04/04 07:27:25;;;;;;;2.70;0.40;;;14.40;99.90;;;;;;4963322;29;20448;-84
2024/04/04 07:29:54;;;;;;;0.60;0.53;;;14.10;99.90;;;;;;4963279;29;20724;-84
2024/04/04 07:32:21;;;;;;;1.50;0.40;;;13.80;99.90;;;;;;4962215;29;20456;-84
2024/04/04 07:34:47;;;;;;;2.73;0.40;;;13.80;99.90;;;;;;4962604;29;20461;-84
2024/04/04 07:37:13;;;;;;;1.33;0.73;;;13.70;99.90;;;;;;4962413;29;20450;-84
2024/04/04 07:39:40;;;;;;;1.50;0.47;;;13.50;99.90;;;;;;4962157;29;20227;-84
2024/04/04 07:42:07;;;;;;;8.00;0.80;;;13.30;99.90;;;;;;4965647;29;20458;-84
2024/04/04 07:44:33;;;;;;;1.80;0.60;;;13.10;99.90;;;;;;4968279;29;20447;-84
2024/04/04 07:47:00;;;;;;;0.50;0.40;;;12.90;99.90;;;;;;4966765;29;20502;-84
2024/04/04 07:49:26;;;;;;;2.90;0.80;;;12.80;99.90;;;;;;4965366;29;20470;-84
2024/04/04 07:51:52;;;;;;;4.23;0.50;;;12.50;99.90;;;;;;4966063;29;20438;-83
2024/04/04 07:54:18;;;;;;;1.00;0.57;;;12.30;99.90;;;;;;4967937;29;20206;-84
2024/04/04 07:56:47;;;;;;;0.70;0.43;;;12.10;99.90;;;;;;4965279;29;21004;-88
2024/04/04 07:59:12;;;;;;;0.97;0.53;;;11.90;99.90;;;;;;4964341;29;20526;-84
2024/04/04 08:01:39;;;;;;;1.23;0.80;;;11.80;99.90;;;;;;4965005;29;20446;-84
2024/04/04 08:04:05;;;;;;;1.53;0.50;;;11.80;99.90;;;;;;4962575;29;20209;-82
2024/04/04 08:06:32;;;;;;;4.70;0.40;;;11.80;99.90;;;;;;4961239;29;20540;-82
2024/04/04 08:08:59;;;;;;;0.60;0.50;;;11.70;99.90;;;;;;4961294;29;20237;-82
2024/04/04 08:11:25;;;;;;;0.70;0.50;;;11.60;99.90;;;;;;4961335;29;20947;-82
2024/04/04 08:13:53;;;;;;;0.47;0.47;;;11.60;99.90;;;;;;4960670;29;20478;-82
2024/04/04 08:16:20;;;;;;;0.53;0.50;;;11.60;99.90;;;;;;4961342;29;20472;-82
2024/04/04 08:18:46;;;;;;;1.07;0.50;;;11.50;99.90;;;;;;4960170;29;20825;-82
2024/04/04 08:21:14;;;;;;;0.87;0.50;;;11.50;99.90;;;;;;4961042;29;20461;-81
2024/04/04 08:23:40;;;;;;;0.50;0.50;;;11.50;99.90;;;;;;4960732;29;20457;-82
2024/04/04 08:26:07;;;;;;;1.17;0.40;;;11.60;99.90;;;;;;4960598;28;20522;-82
2024/04/04 08:28:34;;;;;;;0.40;0.37;;;11.60;99.90;;;;;;4960187;29;20230;-82
2024/04/04 08:31:03;;;;;;;1.10;0.70;;;11.60;99.90;;;;;;4960382;29;20460;-82
2024/04/04 08:33:30;;;;;;;1.90;0.50;;;11.60;99.90;;;;;;4960497;29;20488;-82
2024/04/04 08:35:58;;;;;;;0.40;0.40;;;11.60;99.90;;;;;;4960695;29;20442;-82
2024/04/04 08:38:24;;;;;;;1.40;0.70;;;11.60;99.90;;;;;;4960206;29;20462;-82
2024/04/04 08:40:51;;;;;;;0.40;0.40;;;11.60;99.90;;;;;;4960617;29;20430;-82
2024/04/04 08:43:17;;;;;;;0.50;0.40;;;11.60;99.90;;;;;;4960249;29;20198;-82
2024/04/04 08:45:47;;;;;;;1.33;0.50;;;11.70;99.90;;;;;;4959956;29;20967;-82
2024/04/04 08:48:17;;;;;;;0.60;0.53;;;11.80;99.90;;;;;;4959866;29;20434;-82
2024/04/04 08:50:45;;;;;;;2.03;0.70;;;11.90;99.90;;;;;;4959455;29;20940;-82
2024/04/04 08:53:13;;;;;;;2.00;0.50;;;11.90;99.90;;;;;;4959245;29;20493;-82
2024/04/04 08:55:40;;;;;;;0.80;0.60;;;11.90;99.90;;;;;;4960212;29;20451;-82
2024/04/04 08:58:08;;;;;;;0.60;0.57;;;12.00;99.90;;;;;;4961282;29;20456;-82
2024/04/04 09:00:35;;;;;;;3.20;0.50;;;12.00;99.90;;;;;;4960588;29;20907;-82
2024/04/04 09:03:00;;;;;;;4.20;0.50;;;12.20;99.90;;;;;;4959790;29;20438;-81
2024/04/04 09:05:29;;;;;;;0.57;0.50;;;12.40;99.90;;;;;;4959705;29;20447;-81
2024/04/04 09:07:54;;;;;;;0.87;0.43;;;12.60;99.90;;;;;;4960229;29;20217;-82
2024/04/04 09:10:21;;;;;;;2.40;0.50;;;12.70;99.90;;;;;;4959732;29;20968;-81
2024/04/04 09:12:47;;;;;;;0.50;0.47;;;12.80;99.90;;;;;;4960105;29;20727;-81
2024/04/04 09:15:16;;;;;;;0.30;0.30;;;12.80;99.90;;;;;;4960125;29;20451;-81
2024/04/04 09:17:41;;;;;;;1.37;0.60;;;12.80;99.90;;;;;;4959975;29;20202;-81
2024/04/04 09:20:10;;;;;;;2.00;0.47;;;12.70;99.90;;;;;;4959870;29;20485;-81
2024/04/04 09:22:39;;;;;;;0.60;0.50;;;12.60;99.90;;;;;;4959340;29;20289;-81
2024/04/04 09:25:06;;;;;;;1.80;0.43;;;12.70;99.90;;;;;;4959347;29;20490;-81
2024/04/04 09:27:33;;;;;;;2.30;0.50;;;12.80;99.90;;;;;;4959312;29;20461;-81
2024/04/04 09:30:01;;;;;;;0.57;0.50;;;12.90;99.90;;;;;;4958929;29;20470;-81
2024/04/04 09:32:27;;;;;;;0.70;0.43;;;12.90;99.90;;;;;;4959199;29;20583;-82
2024/04/04 09:34:54;;;;;;;1.13;0.40;;;13.00;99.90;;;;;;4957842;29;21003;-82
2024/04/04 09:37:23;;;;;;;0.40;0.40;;;13.20;99.90;;;;;;4958327;28;20801;-82
2024/04/04 09:39:51;;;;;;;0.53;0.53;;;13.50;99.90;;;;;;4958703;29;20561;-83
2024/04/04 09:42:20;;;;;;;3.30;1.33;;;13.70;99.90;;;;;;4958433;29;20457;-83
2024/04/04 09:44:47;;;;;;;0.50;0.50;;;13.70;99.90;;;;;;4957849;29;20474;-83
2024/04/04 09:47:14;;;;;;;0.60;0.60;;;13.60;99.90;;;;;;4958188;29;20480;-81
2024/04/04 09:49:48;;;;;;;0.70;0.50;;;13.60;99.90;;;;;;4958808;29;20474;-82
2024/04/04 09:52:16;;;;;;;1.17;0.40;;;13.60;99.90;;;;;;4957394;29;20427;-82
2024/04/04 09:54:43;;;;;;;3.27;0.60;;;13.60;99.90;;;;;;4957701;29;20466;-82
2024/04/04 09:57:13;;;;;;;0.40;0.40;;;13.60;99.90;;;;;;4957564;29;20439;-82
2024/04/04 09:59:39;;;;;;;2.90;0.57;;;13.50;99.90;;;;;;4958289;29;20525;-82
2024/04/04 10:02:06;;;;;;;0.40;0.40;;;13.30;99.90;;;;;;4960871;29;20438;-82
2024/04/04 10:04:33;;;;;;;1.90;0.40;;;13.20;99.90;;;;;;4960147;29;20446;-82
2024/04/04 10:06:59;;;;;;;1.17;0.40;;;13.10;99.90;;;;;;4959834;29;20462;-82
2024/04/04 10:09:27;;;;;;;0.40;0.40;;;13.00;99.90;;;;;;4961351;29;21037;-81
2024/04/04 10:11:53;;;;;;;0.40;0.40;;;12.90;99.90;;;;;;4972525;29;20191;-83
2024/04/04 10:14:22;;;;;;;4.07;0.90;;;13.00;99.90;;;;;;4971837;29;20493;-82
2024/04/04 10:16:52;;;;;;;1.60;0.80;;;13.00;99.90;;;;;;4972839;29;20423;-82
2024/04/04 10:19:20;;;;;;;1.47;0.40;;;13.00;99.90;;;;;;4972846;29;20474;-83
2024/04/04 10:21:47;;;;;;;1.10;0.60;;;12.90;99.90;;;;;;4970167;29;20458;-83
2024/04/04 10:24:20;;;;;;;2.00;0.40;;;12.90;99.90;;;;;;4960228;29;20470;-82
2024/04/04 10:26:54;;;;;;;0.90;0.50;;;12.80;99.90;;;;;;4959735;29;20415;-82
2024/04/04 10:29:23;;;;;;;2.00;0.50;;;12.70;99.90;;;;;;4960198;29;20934;-82
2024/04/04 10:31:49;;;;;;;0.50;0.50;;;12.70;99.90;;;;;;4959411;29;20462;-82
2024/04/04 10:34:16;;;;;;;0.30;0.30;;;12.60;99.90;;;;;;4959364;29;20490;-82
2024/04/04 10:36:43;;;;;;;4.13;0.60;;;12.70;99.90;;;;;;4959259;29;20460;-82
2024/04/04 10:39:13;;;;;;;0.37;0.37;;;12.60;99.90;;;;;;4958952;29;20474;-82
2024/04/04 10:41:43;;;;;;;2.90;0.80;;;12.60;99.90;;;;;;4958562;29;20450;-82
2024/04/04 10:44:14;;;;;;;1.73;0.50;;;12.60;99.90;;;;;;4958636;29;20447;-82
2024/04/04 10:46:44;;;;;;;2.00;0.50;;;12.60;99.90;;;;;;4959764;29;20478;-83
2024/04/04 10:49:11;;;;;;;1.47;0.93;;;12.60;99.90;;;;;;4960064;28;20529;-82
2024/04/04 10:51:39;;;;;;;0.40;0.40;;;12.60;99.90;;;;;;4962607;29;20442;-82
2024/04/04 10:54:07;;;;;;;2.93;0.50;;;12.60;99.90;;;;;;4962182;29;20576;-82
2024/04/04 10:56:33;;;;;;;0.93;0.50;;;12.60;99.90;;;;;;4962199;29;20482;-82
2024/04/04 10:59:00;;;;;;;1.10;0.60;;;12.90;99.90;;;;;;4961750;29;20906;-82
2024/04/04 11:01:27;;;;;;;2.50;0.50;;;13.20;99.90;;;;;;4961539;29;20222;-82
2024/04/04 11:03:56;;;;;;;1.47;0.60;;;13.70;99.90;;;;;;4961780;29;20446;-82
2024/04/04 11:06:25;;;;;;;0.60;0.50;;;13.90;99.90;;;;;;4961606;29;20450;-82
2024/04/04 11:08:53;;;;;;;4.67;0.87;;;14.00;99.90;;;;;;4961860;29;20989;-82
2024/04/04 11:11:21;;;;;;;3.13;0.60;;;14.10;99.90;;;;;;4962146;29;20795;-83
2024/04/04 11:13:48;;;;;;;3.37;0.77;;;14.10;99.90;;;;;;4962522;29;20897;-82
2024/04/04 11:16:14;;;;;;;1.90;0.60;;;14.00;99.90;;;;;;4962614;29;21018;-83
2024/04/04 11:18:41;;;;;;;1.67;0.60;;;13.70;99.90;;;;;;4962282;29;20509;-83
2024/04/04 11:21:09;;;;;;;1.90;0.50;;;13.50;99.90;;;;;;4962353;29;20210;-83
2024/04/04 11:23:36;;;;;;;1.13;0.50;;;13.20;99.90;;;;;;4961466;29;20481;-82
2024/04/04 11:26:02;;;;;;;0.90;0.60;;;12.90;99.90;;;;;;4961148;29;20513;-82
2024/04/04 11:28:29;;;;;;;0.50;0.40;;;12.70;99.90;;;;;;4961541;29;20541;-82
2024/04/04 11:30:55;;;;;;;0.70;0.70;;;12.70;99.90;;;;;;4961118;29;20537;-82
2024/04/04 11:33:22;;;;;;;0.83;0.40;;;12.60;99.90;;;;;;4960627;29;20491;-85
2024/04/04 11:35:48;;;;;;;0.90;0.43;;;12.50;99.90;;;;;;4961099;29;20213;-82
2024/04/04 11:38:16;;;;;;;0.50;0.50;;;12.60;99.90;;;;;;4961671;29;20435;-84
2024/04/04 11:40:42;;;;;;;1.60;0.50;;;12.60;99.90;;;;;;4967887;29;20270;-84
2024/04/04 11:43:08;;;;;;;1.30;0.67;;;12.80;99.90;;;;;;4963617;29;20485;-84
2024/04/04 11:45:35;;;;;;;0.60;0.60;;;12.80;99.90;;;;;;4963864;29;20205;-83
2024/04/04 11:48:03;;;;;;;0.70;0.50;;;12.80;99.90;;;;;;4962867;29;20521;-84
2024/04/04 11:50:31;;;;;;;4.20;0.50;;;12.80;99.90;;;;;;4963573;29;20505;-84
2024/04/04 11:52:59;;;;;;;1.47;0.50;;;12.90;99.90;;;;;;4963230;29;20494;-84
2024/04/04 11:55:27;;;;;;;1.57;0.60;;;12.90;99.90;;;;;;4963249;29;20509;-84
2024/04/04 11:57:54;;;;;;;1.23;0.67;;;12.90;99.90;;;;;;4963285;29;20450;-84
2024/04/04 12:00:20;;;;;;;1.17;0.60;;;12.70;99.90;;;;;;4962547;28;20466;-83
2024/04/04 12:02:47;;;;;;;0.60;0.50;;;12.70;99.90;;;;;;4962393;29;20431;-84
2024/04/04 12:05:14;;;;;;;2.63;0.73;;;12.90;99.90;;;;;;4962987;29;20452;-84
2024/04/04 12:07:41;;;;;;;0.57;0.50;;;13.10;99.90;;;;;;4962337;29;20446;-83
2024/04/04 12:10:07;;;;;;;0.73;0.67;;;13.20;99.90;;;;;;4962413;29;20457;-84
2024/04/04 12:12:35;;;;;;;1.10;0.67;;;13.20;99.90;;;;;;4962539;29;20455;-84
2024/04/04 12:15:07;;;;;;;0.53;0.40;;;13.40;99.90;;;;;;4962272;29;20501;-84
2024/04/04 12:17:36;;;;;;;2.50;0.40;;;13.60;99.90;;;;;;4962694;29;20442;-84
2024/04/04 12:20:02;;;;;;;0.40;0.40;;;13.70;99.90;;;;;;4962771;29;20506;-84
2024/04/04 12:22:29;;;;;;;2.10;0.53;;;13.60;99.90;;;;;;4962419;29;20445;-84
2024/04/04 12:24:55;;;;;;;0.40;0.40;;;13.60;99.90;;;;;;4962499;29;20451;-84
2024/04/04 12:27:22;;;;;;;0.40;0.40;;;13.70;99.90;;;;;;4962240;29;20476;-84
2024/04/04 12:29:49;;;;;;;1.60;0.37;;;13.70;99.90;;;;;;4962091;29;20474;-84
2024/04/04 12:32:15;;;;;;;0.40;0.37;;;13.60;99.90;;;;;;4962220;29;20458;-84
2024/04/04 12:34:43;;;;;;;0.40;0.40;;;13.60;99.90;;;;;;4962378;29;20493;-83
2024/04/04 12:37:10;;;;;;;0.53;0.50;;;13.40;99.90;;;;;;4966144;29;20458;-84
2024/04/04 12:39:37;;;;;;;0.40;0.40;;;13.40;99.90;;;;;;4963511;29;20472;-84
2024/04/04 12:42:05;;;;;;;0.43;0.43;;;13.30;99.90;;;;;;4963373;29;20454;-84
2024/04/04 12:44:31;;;;;;;1.83;0.40;;;13.20;99.90;;;;;;4962448;29;20447;-84
2024/04/04 12:47:00;;;;;;;1.00;0.50;;;13.20;99.90;;;;;;4962160;29;20493;-82